METAR AND TAF INFORMATION
METAR FOR USPP
ADDS - METARS form results

(0411 UTC 26 August 2019)
Data provider http://aviationweather.gov/metar/data/
 
METAR text: USPP 260400Z 32006G11MPS 9999 BKN015CB 09/06 Q1016 R21/150055 TEMPO 2000 SHRA BKN005 BKN020CB RMK QFE751
Conditions at: USPP (PERM/BOLSHOE SAV, RU) observed 0400 UTC 26 August 2019
Temperature: 9.0°C (48°F)
Dewpoint: 6.0°C (43°F) [RH = 81%]
Pressure (altimeter): 30.00 inches Hg (1016.0 mb)
Winds: from the NW (320 degrees) at 14 MPH (12 knots; 6.2 m/s)
gusting to 24 MPH (21 knots; 10.8 m/s)
Visibility: 6 or more miles (10+ km)
Ceiling: 1500 feet AGL
Clouds: broken clouds at 1500 feet AGL
Weather: no significant weather observed at this time

METAR text: USPP 260330Z 32006G11MPS 290V350 9999 BKN014CB 09/07 Q1016 R21/150055 TEMPO 2000 SHRA BKN005 BKN020CB RMK QFE751
Conditions at: USPP (PERM/BOLSHOE SAV, RU) observed 0330 UTC 26 August 2019
Temperature: 9.0°C (48°F)
Dewpoint: 7.0°C (45°F) [RH = 87%]
Pressure (altimeter): 30.00 inches Hg (1016.0 mb)
Winds: from the NW (320 degrees) at 14 MPH (12 knots; 6.2 m/s)
gusting to 24 MPH (21 knots; 10.8 m/s)
Visibility: 6 or more miles (10+ km)
Ceiling: 1400 feet AGL
Clouds: broken clouds at 1400 feet AGL
Weather: no significant weather observed at this time

Forecast for: USPP (PERM/BOLSHOE SAV, RU)
Text: TAF USPP 260158Z 2603/2703 33005G12MPS 9999 BKN011CB
Forecast period: 0300 UTC 26 August 2019 to 0300 UTC 27 August 2019
Forecast type: FROM: standard forecast or significant change
Winds: from the NNW (330 degrees) at 12 MPH (10 knots; 5.1 m/s)
gusting to 26 MPH (23 knots; 11.8 m/s)
Visibility: 6 or more miles 10+ km)
Ceiling: 1100 feet AGL
Clouds: broken clouds at 1100 feet AGL
Weather: no significant weather forecast for this period
Text: TEMPO 2603/2621 32006G18MPS -SHRA
Forecast period: 0300 to 2100 UTC 26 August 2019
Forecast type: TEMPORARY: The following changes expected for less than half the time period
Winds: from the NW (320 degrees) at 14 MPH (12 knots; 6.2 m/s)
gusting to 40 MPH (35 knots; 18.0 m/s)
Visibility: missing
Ceiling: unknown
Clouds: missing
Weather: -SHRA  (light rain showers)

 AIRPORT MAP

 RUNWAY INFORMATION

 AIRPORT FREQUENCIES
Type APP Name PERM APP Frequency 127.1 MHZ
Type ATIS Name PERM ATIS Frequency 126.4 MHZ
Type GND Name TAXIING Frequency 121.7 MHZ
Type TWR Name PREM START Frequency 124 MHZ

 AIRPORT NEAR NAVIGATION AIDS
Type NDB Name Perm Frequency 705 KHZ
Type NDB Name Perm Frequency 705 KHZ



2018 Air Astana Virtual Airline